sensor_id;sensor_type;location;lat;lon;timestamp;P1;durP1;ratioP1;P2;durP2;ratioP2
82288;SDS011;71889;39.264;-120.910;2024-02-21T00:01:27;3.97;;;2.10;;
82288;SDS011;71889;39.264;-120.910;2024-02-21T00:03:53;3.33;;;1.52;;
82288;SDS011;71889;39.264;-120.910;2024-02-21T00:06:20;5.30;;;1.48;;
82288;SDS011;71889;39.264;-120.910;2024-02-21T00:08:47;1.70;;;1.00;;
82288;SDS011;71889;39.264;-120.910;2024-02-21T00:11:14;3.60;;;2.25;;
82288;SDS011;71889;39.264;-120.910;2024-02-21T00:13:40;4.32;;;2.42;;
82288;SDS011;71889;39.264;-120.910;2024-02-21T00:16:07;4.55;;;1.80;;
82288;SDS011;71889;39.264;-120.910;2024-02-21T00:18:33;6.85;;;3.40;;
82288;SDS011;71889;39.264;-120.910;2024-02-21T00:21:00;9.05;;;5.10;;
82288;SDS011;71889;39.264;-120.910;2024-02-21T00:23:27;5.80;;;3.22;;
82288;SDS011;71889;39.264;-120.910;2024-02-21T00:25:54;4.18;;;3.00;;
82288;SDS011;71889;39.264;-120.910;2024-02-21T00:28:20;5.82;;;3.00;;
82288;SDS011;71889;39.264;-120.910;2024-02-21T00:30:47;4.65;;;2.80;;
82288;SDS011;71889;39.264;-120.910;2024-02-21T00:33:16;5.63;;;2.75;;
82288;SDS011;71889;39.264;-120.910;2024-02-21T00:35:43;3.78;;;2.20;;
82288;SDS011;71889;39.264;-120.910;2024-02-21T00:38:10;3.25;;;1.60;;
82288;SDS011;71889;39.264;-120.910;2024-02-21T00:40:36;2.72;;;1.20;;
82288;SDS011;71889;39.264;-120.910;2024-02-21T00:43:03;1.17;;;0.77;;
82288;SDS011;71889;39.264;-120.910;2024-02-21T00:45:30;3.72;;;0.90;;
82288;SDS011;71889;39.264;-120.910;2024-02-21T00:47:56;2.22;;;0.75;;
82288;SDS011;71889;39.264;-120.910;2024-02-21T00:50:23;1.17;;;0.90;;
82288;SDS011;71889;39.264;-120.910;2024-02-21T00:52:49;0.98;;;0.60;;
82288;SDS011;71889;39.264;-120.910;2024-02-21T00:55:16;3.03;;;0.70;;
82288;SDS011;71889;39.264;-120.910;2024-02-21T00:57:43;4.65;;;1.40;;
82288;SDS011;71889;39.264;-120.910;2024-02-21T01:00:10;2.42;;;1.17;;
82288;SDS011;71889;39.264;-120.910;2024-02-21T01:02:36;2.50;;;1.58;;
82288;SDS011;71889;39.264;-120.910;2024-02-21T01:05:03;4.90;;;2.58;;
82288;SDS011;71889;39.264;-120.910;2024-02-21T01:07:30;6.90;;;3.25;;
82288;SDS011;71889;39.264;-120.910;2024-02-21T01:09:57;3.63;;;2.28;;
82288;SDS011;71889;39.264;-120.910;2024-02-21T01:12:23;4.75;;;2.00;;
82288;SDS011;71889;39.264;-120.910;2024-02-21T01:14:50;4.80;;;2.97;;
82288;SDS011;71889;39.264;-120.910;2024-02-21T01:17:17;8.52;;;2.90;;
82288;SDS011;71889;39.264;-120.910;2024-02-21T01:19:45;17.50;;;7.43;;
82288;SDS011;71889;39.264;-120.910;2024-02-21T01:22:12;15.98;;;7.53;;
82288;SDS011;71889;39.264;-120.910;2024-02-21T01:24:40;25.52;;;10.90;;
82288;SDS011;71889;39.264;-120.910;2024-02-21T01:27:07;19.48;;;8.95;;
82288;SDS011;71889;39.264;-120.910;2024-02-21T01:29:33;17.90;;;6.50;;
82288;SDS011;71889;39.264;-120.910;2024-02-21T01:32:00;17.05;;;6.63;;
82288;SDS011;71889;39.264;-120.910;2024-02-21T01:34:26;43.35;;;10.73;;
82288;SDS011;71889;39.264;-120.910;2024-02-21T01:36:53;34.42;;;9.98;;
82288;SDS011;71889;39.264;-120.910;2024-02-21T01:39:23;99.25;;;19.67;;
82288;SDS011;71889;39.264;-120.910;2024-02-21T01:41:49;114.53;;;22.23;;
82288;SDS011;71889;39.264;-120.910;2024-02-21T01:44:16;50.47;;;12.40;;
82288;SDS011;71889;39.264;-120.910;2024-02-21T01:46:43;9.68;;;3.78;;
82288;SDS011;71889;39.264;-120.910;2024-02-21T01:49:10;7.57;;;2.38;;
82288;SDS011;71889;39.264;-120.910;2024-02-21T01:51:36;5.72;;;1.67;;
82288;SDS011;71889;39.264;-120.910;2024-02-21T01:54:03;4.53;;;1.85;;
82288;SDS011;71889;39.264;-120.910;2024-02-21T01:56:30;6.55;;;2.95;;
82288;SDS011;71889;39.264;-120.910;2024-02-21T01:58:57;12.38;;;4.00;;
82288;SDS011;71889;39.264;-120.910;2024-02-21T02:01:23;4.88;;;2.83;;
82288;SDS011;71889;39.264;-120.910;2024-02-21T02:03:51;16.17;;;8.52;;
82288;SDS011;71889;39.264;-120.910;2024-02-21T02:06:18;8.88;;;4.72;;
82288;SDS011;71889;39.264;-120.910;2024-02-21T02:08:44;21.48;;;9.02;;
82288;SDS011;71889;39.264;-120.910;2024-02-21T02:11:13;10.13;;;4.40;;
82288;SDS011;71889;39.264;-120.910;2024-02-21T02:13:39;20.70;;;6.75;;
82288;SDS011;71889;39.264;-120.910;2024-02-21T02:16:06;13.73;;;5.82;;
82288;SDS011;71889;39.264;-120.910;2024-02-21T02:18:33;6.60;;;3.20;;
82288;SDS011;71889;39.264;-120.910;2024-02-21T02:20:59;8.80;;;3.10;;
82288;SDS011;71889;39.264;-120.910;2024-02-21T02:23:29;4.82;;;1.55;;
82288;SDS011;71889;39.264;-120.910;2024-02-21T02:25:59;4.82;;;1.67;;
82288;SDS011;71889;39.264;-120.910;2024-02-21T02:28:29;3.70;;;1.88;;
82288;SDS011;71889;39.264;-120.910;2024-02-21T02:30:56;4.43;;;1.75;;
82288;SDS011;71889;39.264;-120.910;2024-02-21T02:33:22;4.20;;;1.90;;
82288;SDS011;71889;39.264;-120.910;2024-02-21T02:35:49;6.43;;;2.58;;
82288;SDS011;71889;39.264;-120.910;2024-02-21T02:38:16;10.25;;;2.22;;
82288;SDS011;71889;39.264;-120.910;2024-02-21T02:40:43;17.55;;;8.32;;
82288;SDS011;71889;39.264;-120.910;2024-02-21T02:43:09;6.93;;;2.13;;
82288;SDS011;71889;39.264;-120.910;2024-02-21T02:45:36;4.93;;;2.30;;
82288;SDS011;71889;39.264;-120.910;2024-02-21T02:48:03;5.70;;;1.90;;
82288;SDS011;71889;39.264;-120.910;2024-02-21T02:50:30;4.05;;;1.73;;
82288;SDS011;71889;39.264;-120.910;2024-02-21T02:52:57;4.05;;;1.52;;
82288;SDS011;71889;39.264;-120.910;2024-02-21T02:55:24;1.40;;;0.68;;
82288;SDS011;71889;39.264;-120.910;2024-02-21T02:57:51;10.05;;;2.80;;
82288;SDS011;71889;39.264;-120.910;2024-02-21T03:00:18;6.90;;;2.90;;
82288;SDS011;71889;39.264;-120.910;2024-02-21T03:02:46;11.43;;;6.68;;
82288;SDS011;71889;39.264;-120.910;2024-02-21T03:05:13;2.28;;;1.20;;
82288;SDS011;71889;39.264;-120.910;2024-02-21T03:07:40;4.28;;;2.28;;
82288;SDS011;71889;39.264;-120.910;2024-02-21T03:10:07;1.33;;;0.77;;
82288;SDS011;71889;39.264;-120.910;2024-02-21T03:12:37;1.70;;;0.75;;
82288;SDS011;71889;39.264;-120.910;2024-02-21T03:15:04;2.35;;;0.57;;
82288;SDS011;71889;39.264;-120.910;2024-02-21T03:17:32;2.30;;;1.02;;
82288;SDS011;71889;39.264;-120.910;2024-02-21T03:22:31;1.52;;;0.70;;
82288;SDS011;71889;39.264;-120.910;2024-02-21T03:24:58;3.22;;;0.40;;
82288;SDS011;71889;39.264;-120.910;2024-02-21T03:27:24;0.60;;;0.20;;
82288;SDS011;71889;39.264;-120.910;2024-02-21T03:29:51;1.25;;;0.40;;
82288;SDS011;71889;39.264;-120.910;2024-02-21T03:32:18;1.55;;;0.60;;
82288;SDS011;71889;39.264;-120.910;2024-02-21T03:34:44;3.13;;;1.40;;
82288;SDS011;71889;39.264;-120.910;2024-02-21T03:37:11;4.68;;;1.90;;
82288;SDS011;71889;39.264;-120.910;2024-02-21T03:39:39;1.83;;;0.98;;
82288;SDS011;71889;39.264;-120.910;2024-02-21T03:42:06;2.92;;;1.70;;
82288;SDS011;71889;39.264;-120.910;2024-02-21T03:44:33;3.97;;;2.65;;
82288;SDS011;71889;39.264;-120.910;2024-02-21T03:46:59;3.10;;;1.35;;
82288;SDS011;71889;39.264;-120.910;2024-02-21T03:49:26;2.88;;;0.98;;
82288;SDS011;71889;39.264;-120.910;2024-02-21T03:51:53;45.13;;;17.98;;
82288;SDS011;71889;39.264;-120.910;2024-02-21T03:54:20;10.25;;;4.55;;
82288;SDS011;71889;39.264;-120.910;2024-02-21T03:56:47;5.72;;;2.20;;
82288;SDS011;71889;39.264;-120.910;2024-02-21T03:59:14;10.18;;;4.80;;
82288;SDS011;71889;39.264;-120.910;2024-02-21T04:01:41;4.88;;;1.67;;
82288;SDS011;71889;39.264;-120.910;2024-02-21T04:04:07;3.22;;;0.90;;
82288;SDS011;71889;39.264;-120.910;2024-02-21T04:06:34;2.15;;;0.60;;
82288;SDS011;71889;39.264;-120.910;2024-02-21T04:09:02;1.48;;;0.55;;
82288;SDS011;71889;39.264;-120.910;2024-02-21T04:11:29;1.00;;;0.43;;
82288;SDS011;71889;39.264;-120.910;2024-02-21T04:13:55;1.33;;;0.60;;
82288;SDS011;71889;39.264;-120.910;2024-02-21T04:16:22;1.15;;;0.60;;
82288;SDS011;71889;39.264;-120.910;2024-02-21T04:18:49;2.35;;;0.80;;
82288;SDS011;71889;39.264;-120.910;2024-02-21T04:21:16;3.50;;;1.15;;
82288;SDS011;71889;39.264;-120.910;2024-02-21T04:23:43;3.33;;;1.73;;
82288;SDS011;71889;39.264;-120.910;2024-02-21T04:26:10;3.63;;;1.77;;
82288;SDS011;71889;39.264;-120.910;2024-02-21T04:28:36;3.22;;;1.73;;
82288;SDS011;71889;39.264;-120.910;2024-02-21T04:31:03;2.03;;;1.25;;
82288;SDS011;71889;39.264;-120.910;2024-02-21T04:33:30;1.00;;;0.60;;
82288;SDS011;71889;39.264;-120.910;2024-02-21T04:35:56;2.15;;;0.80;;
82288;SDS011;71889;39.264;-120.910;2024-02-21T04:38:24;1.50;;;0.73;;
82288;SDS011;71889;39.264;-120.910;2024-02-21T04:40:50;2.50;;;0.80;;
82288;SDS011;71889;39.264;-120.910;2024-02-21T04:43:17;2.55;;;1.60;;
82288;SDS011;71889;39.264;-120.910;2024-02-21T04:45:44;3.60;;;2.20;;
82288;SDS011;71889;39.264;-120.910;2024-02-21T04:48:10;6.13;;;3.65;;
82288;SDS011;71889;39.264;-120.910;2024-02-21T04:50:37;5.13;;;3.33;;
82288;SDS011;71889;39.264;-120.910;2024-02-21T04:53:04;5.90;;;2.40;;
82288;SDS011;71889;39.264;-120.910;2024-02-21T04:55:30;4.18;;;1.90;;
82288;SDS011;71889;39.264;-120.910;2024-02-21T04:57:57;5.43;;;1.73;;
82288;SDS011;71889;39.264;-120.910;2024-02-21T05:00:24;3.28;;;1.50;;
82288;SDS011;71889;39.264;-120.910;2024-02-21T05:02:50;4.10;;;1.92;;
82288;SDS011;71889;39.264;-120.910;2024-02-21T05:05:17;2.95;;;0.90;;
82288;SDS011;71889;39.264;-120.910;2024-02-21T05:07:44;2.50;;;1.08;;
82288;SDS011;71889;39.264;-120.910;2024-02-21T05:10:11;4.63;;;2.03;;
82288;SDS011;71889;39.264;-120.910;2024-02-21T05:12:37;2.95;;;1.75;;
82288;SDS011;71889;39.264;-120.910;2024-02-21T05:15:04;7.15;;;4.35;;
82288;SDS011;71889;39.264;-120.910;2024-02-21T05:17:31;10.85;;;5.00;;
82288;SDS011;71889;39.264;-120.910;2024-02-21T05:19:58;21.05;;;9.98;;
82288;SDS011;71889;39.264;-120.910;2024-02-21T05:22:24;31.08;;;12.98;;
82288;SDS011;71889;39.264;-120.910;2024-02-21T05:24:51;8.80;;;4.20;;
82288;SDS011;71889;39.264;-120.910;2024-02-21T05:27:18;5.18;;;1.88;;
82288;SDS011;71889;39.264;-120.910;2024-02-21T05:29:44;3.08;;;1.50;;
82288;SDS011;71889;39.264;-120.910;2024-02-21T05:32:11;3.42;;;1.73;;
82288;SDS011;71889;39.264;-120.910;2024-02-21T05:34:38;4.40;;;2.35;;
82288;SDS011;71889;39.264;-120.910;2024-02-21T05:37:05;4.10;;;1.83;;
82288;SDS011;71889;39.264;-120.910;2024-02-21T05:39:32;4.97;;;2.03;;
82288;SDS011;71889;39.264;-120.910;2024-02-21T05:41:58;5.18;;;2.15;;
82288;SDS011;71889;39.264;-120.910;2024-02-21T05:44:25;5.20;;;2.63;;
82288;SDS011;71889;39.264;-120.910;2024-02-21T05:46:52;2.95;;;1.45;;
82288;SDS011;71889;39.264;-120.910;2024-02-21T05:49:19;2.38;;;0.80;;
82288;SDS011;71889;39.264;-120.910;2024-02-21T05:51:45;2.40;;;1.08;;
82288;SDS011;71889;39.264;-120.910;2024-02-21T05:54:12;2.60;;;1.27;;
82288;SDS011;71889;39.264;-120.910;2024-02-21T05:56:39;2.83;;;1.30;;
82288;SDS011;71889;39.264;-120.910;2024-02-21T05:59:05;4.05;;;1.05;;
82288;SDS011;71889;39.264;-120.910;2024-02-21T06:01:32;4.55;;;1.40;;
82288;SDS011;71889;39.264;-120.910;2024-02-21T06:03:59;8.10;;;2.40;;
82288;SDS011;71889;39.264;-120.910;2024-02-21T06:06:25;2.53;;;1.20;;
82288;SDS011;71889;39.264;-120.910;2024-02-21T06:08:52;3.15;;;1.42;;
82288;SDS011;71889;39.264;-120.910;2024-02-21T06:11:19;2.72;;;1.63;;
82288;SDS011;71889;39.264;-120.910;2024-02-21T06:13:46;4.53;;;1.83;;
82288;SDS011;71889;39.264;-120.910;2024-02-21T06:16:12;3.03;;;1.83;;
82288;SDS011;71889;39.264;-120.910;2024-02-21T06:18:39;4.38;;;1.48;;
82288;SDS011;71889;39.264;-120.910;2024-02-21T06:21:06;6.07;;;2.42;;
82288;SDS011;71889;39.264;-120.910;2024-02-21T06:23:32;7.32;;;2.95;;
82288;SDS011;71889;39.264;-120.910;2024-02-21T06:25:59;6.72;;;2.60;;
82288;SDS011;71889;39.264;-120.910;2024-02-21T06:28:26;13.57;;;5.07;;
82288;SDS011;71889;39.264;-120.910;2024-02-21T06:30:52;24.30;;;11.48;;
82288;SDS011;71889;39.264;-120.910;2024-02-21T06:33:19;19.73;;;8.70;;
82288;SDS011;71889;39.264;-120.910;2024-02-21T06:35:50;7.55;;;3.55;;
82288;SDS011;71889;39.264;-120.910;2024-02-21T06:38:18;7.40;;;3.47;;
82288;SDS011;71889;39.264;-120.910;2024-02-21T06:40:45;12.43;;;4.88;;
82288;SDS011;71889;39.264;-120.910;2024-02-21T06:43:18;14.10;;;6.97;;
82288;SDS011;71889;39.264;-120.910;2024-02-21T06:45:45;17.80;;;5.80;;
82288;SDS011;71889;39.264;-120.910;2024-02-21T06:48:22;15.50;;;5.18;;
82288;SDS011;71889;39.264;-120.910;2024-02-21T06:50:48;21.35;;;6.60;;
82288;SDS011;71889;39.264;-120.910;2024-02-21T06:53:15;21.63;;;6.70;;
82288;SDS011;71889;39.264;-120.910;2024-02-21T06:55:42;18.23;;;7.00;;
82288;SDS011;71889;39.264;-120.910;2024-02-21T06:58:08;17.02;;;5.65;;
82288;SDS011;71889;39.264;-120.910;2024-02-21T07:00:37;10.75;;;4.43;;
82288;SDS011;71889;39.264;-120.910;2024-02-21T07:03:04;11.48;;;4.45;;
82288;SDS011;71889;39.264;-120.910;2024-02-21T07:05:31;12.05;;;4.32;;
82288;SDS011;71889;39.264;-120.910;2024-02-21T07:07:58;10.88;;;4.40;;
82288;SDS011;71889;39.264;-120.910;2024-02-21T07:10:24;11.43;;;3.97;;
82288;SDS011;71889;39.264;-120.910;2024-02-21T07:12:53;9.82;;;3.40;;
82288;SDS011;71889;39.264;-120.910;2024-02-21T07:15:19;7.40;;;2.78;;
82288;SDS011;71889;39.264;-120.910;2024-02-21T07:17:47;7.90;;;2.72;;
82288;SDS011;71889;39.264;-120.910;2024-02-21T07:20:13;10.18;;;2.70;;
82288;SDS011;71889;39.264;-120.910;2024-02-21T07:22:40;5.63;;;2.10;;
82288;SDS011;71889;39.264;-120.910;2024-02-21T07:25:07;6.68;;;1.60;;
82288;SDS011;71889;39.264;-120.910;2024-02-21T07:27:34;9.82;;;1.98;;
82288;SDS011;71889;39.264;-120.910;2024-02-21T07:30:01;5.90;;;2.17;;
82288;SDS011;71889;39.264;-120.910;2024-02-21T07:32:27;3.92;;;2.10;;
82288;SDS011;71889;39.264;-120.910;2024-02-21T07:34:54;4.72;;;1.92;;
82288;SDS011;71889;39.264;-120.910;2024-02-21T07:37:21;9.52;;;4.78;;
82288;SDS011;71889;39.264;-120.910;2024-02-21T07:39:47;11.30;;;3.80;;
82288;SDS011;71889;39.264;-120.910;2024-02-21T07:42:14;34.42;;;9.20;;
82288;SDS011;71889;39.264;-120.910;2024-02-21T07:44:41;23.75;;;8.88;;
82288;SDS011;71889;39.264;-120.910;2024-02-21T07:47:07;23.38;;;7.97;;
82288;SDS011;71889;39.264;-120.910;2024-02-21T07:49:43;16.05;;;6.00;;
82288;SDS011;71889;39.264;-120.910;2024-02-21T07:52:11;15.23;;;5.80;;
82288;SDS011;71889;39.264;-120.910;2024-02-21T07:54:38;9.05;;;4.32;;
82288;SDS011;71889;39.264;-120.910;2024-02-21T07:57:04;6.68;;;3.38;;
82288;SDS011;71889;39.264;-120.910;2024-02-21T07:59:31;5.72;;;2.60;;
82288;SDS011;71889;39.264;-120.910;2024-02-21T08:01:58;4.75;;;2.45;;
82288;SDS011;71889;39.264;-120.910;2024-02-21T08:04:25;5.80;;;2.65;;
82288;SDS011;71889;39.264;-120.910;2024-02-21T08:06:54;6.07;;;3.53;;
82288;SDS011;71889;39.264;-120.910;2024-02-21T08:09:21;6.20;;;3.28;;
82288;SDS011;71889;39.264;-120.910;2024-02-21T08:11:49;6.50;;;3.70;;
82288;SDS011;71889;39.264;-120.910;2024-02-21T08:14:15;9.85;;;4.55;;
82288;SDS011;71889;39.264;-120.910;2024-02-21T08:16:42;8.73;;;3.92;;
82288;SDS011;71889;39.264;-120.910;2024-02-21T08:19:10;10.80;;;4.40;;
82288;SDS011;71889;39.264;-120.910;2024-02-21T08:21:37;13.70;;;4.68;;
82288;SDS011;71889;39.264;-120.910;2024-02-21T08:24:04;23.60;;;6.07;;
82288;SDS011;71889;39.264;-120.910;2024-02-21T08:26:30;5.15;;;1.95;;
82288;SDS011;71889;39.264;-120.910;2024-02-21T08:28:57;2.83;;;1.10;;
82288;SDS011;71889;39.264;-120.910;2024-02-21T08:31:25;4.75;;;2.40;;
82288;SDS011;71889;39.264;-120.910;2024-02-21T08:33:57;3.35;;;1.48;;
82288;SDS011;71889;39.264;-120.910;2024-02-21T08:36:33;6.57;;;2.10;;
82288;SDS011;71889;39.264;-120.910;2024-02-21T08:39:00;8.77;;;3.53;;
82288;SDS011;71889;39.264;-120.910;2024-02-21T08:41:30;8.38;;;3.30;;
82288;SDS011;71889;39.264;-120.910;2024-02-21T08:43:57;1.90;;;1.02;;
82288;SDS011;71889;39.264;-120.910;2024-02-21T08:46:24;2.00;;;0.40;;
82288;SDS011;71889;39.264;-120.910;2024-02-21T08:48:50;0.60;;;0.40;;
82288;SDS011;71889;39.264;-120.910;2024-02-21T08:51:17;12.32;;;0.85;;
82288;SDS011;71889;39.264;-120.910;2024-02-21T08:53:47;11.70;;;3.10;;
82288;SDS011;71889;39.264;-120.910;2024-02-21T08:56:15;14.95;;;3.15;;
82288;SDS011;71889;39.264;-120.910;2024-02-21T08:58:42;4.00;;;1.20;;
82288;SDS011;71889;39.264;-120.910;2024-02-21T09:01:08;7.47;;;2.15;;
82288;SDS011;71889;39.264;-120.910;2024-02-21T09:03:35;5.53;;;0.52;;
82288;SDS011;71889;39.264;-120.910;2024-02-21T09:06:06;5.38;;;0.63;;
82288;SDS011;71889;39.264;-120.910;2024-02-21T09:08:33;57.58;;;23.60;;
82288;SDS011;71889;39.264;-120.910;2024-02-21T09:11:01;15.48;;;5.78;;
82288;SDS011;71889;39.264;-120.910;2024-02-21T09:13:28;5.45;;;0.50;;
82288;SDS011;71889;39.264;-120.910;2024-02-21T09:15:55;12.93;;;0.98;;
82288;SDS011;71889;39.264;-120.910;2024-02-21T09:18:22;9.35;;;0.90;;
82288;SDS011;71889;39.264;-120.910;2024-02-21T09:20:49;15.43;;;1.05;;
82288;SDS011;71889;39.264;-120.910;2024-02-21T09:23:15;11.80;;;0.50;;
82288;SDS011;71889;39.264;-120.910;2024-02-21T09:25:42;7.07;;;0.40;;
82288;SDS011;71889;39.264;-120.910;2024-02-21T09:28:09;1.95;;;0.30;;
82288;SDS011;71889;39.264;-120.910;2024-02-21T09:30:36;0.28;;;0.10;;
82288;SDS011;71889;39.264;-120.910;2024-02-21T09:33:03;0.90;;;0.00;;
82288;SDS011;71889;39.264;-120.910;2024-02-21T09:35:30;0.50;;;0.30;;
82288;SDS011;71889;39.264;-120.910;2024-02-21T09:37:59;7.10;;;0.52;;
82288;SDS011;71889;39.264;-120.910;2024-02-21T09:40:27;2.17;;;1.10;;
82288;SDS011;71889;39.264;-120.910;2024-02-21T09:42:58;0.25;;;0.20;;
82288;SDS011;71889;39.264;-120.910;2024-02-21T09:45:29;3.88;;;1.98;;
82288;SDS011;71889;39.264;-120.910;2024-02-21T09:50:32;0.95;;;0.35;;
82288;SDS011;71889;39.264;-120.910;2024-02-21T09:53:01;1.00;;;0.60;;
82288;SDS011;71889;39.264;-120.910;2024-02-21T09:55:29;0.10;;;0.00;;
82288;SDS011;71889;39.264;-120.910;2024-02-21T09:58:00;0.50;;;0.25;;
82288;SDS011;71889;39.264;-120.910;2024-02-21T10:00:28;0.90;;;0.40;;
82288;SDS011;71889;39.264;-120.910;2024-02-21T10:02:55;0.22;;;0.10;;
82288;SDS011;71889;39.264;-120.910;2024-02-21T10:05:21;0.10;;;0.00;;
82288;SDS011;71889;39.264;-120.910;2024-02-21T10:07:50;0.10;;;0.03;;
82288;SDS011;71889;39.264;-120.910;2024-02-21T10:10:19;0.73;;;0.20;;
82288;SDS011;71889;39.264;-120.910;2024-02-21T10:12:50;9.77;;;6.30;;
82288;SDS011;71889;39.264;-120.910;2024-02-21T10:15:22;17.88;;;11.05;;
82288;SDS011;71889;39.264;-120.910;2024-02-21T10:17:59;19.23;;;14.38;;
82288;SDS011;71889;39.264;-120.910;2024-02-21T10:20:26;8.70;;;6.80;;
82288;SDS011;71889;39.264;-120.910;2024-02-21T10:23:03;22.10;;;15.25;;
82288;SDS011;71889;39.264;-120.910;2024-02-21T10:25:38;0.93;;;0.68;;
82288;SDS011;71889;39.264;-120.910;2024-02-21T10:28:14;3.55;;;1.58;;
82288;SDS011;71889;39.264;-120.910;2024-02-21T10:30:51;0.20;;;0.10;;
82288;SDS011;71889;39.264;-120.910;2024-02-21T10:33:18;0.95;;;0.40;;
82288;SDS011;71889;39.264;-120.910;2024-02-21T10:35:50;0.13;;;0.10;;
82288;SDS011;71889;39.264;-120.910;2024-02-21T10:38:17;0.00;;;0.00;;
82288;SDS011;71889;39.264;-120.910;2024-02-21T10:40:44;0.22;;;0.00;;
82288;SDS011;71889;39.264;-120.910;2024-02-21T10:43:14;0.00;;;0.00;;
82288;SDS011;71889;39.264;-120.910;2024-02-21T10:45:40;0.17;;;0.10;;
82288;SDS011;71889;39.264;-120.910;2024-02-21T10:48:14;0.28;;;0.00;;
82288;SDS011;71889;39.264;-120.910;2024-02-21T10:53:20;0.73;;;0.40;;
82288;SDS011;71889;39.264;-120.910;2024-02-21T10:55:56;0.70;;;0.32;;
82288;SDS011;71889;39.264;-120.910;2024-02-21T10:58:25;1.65;;;0.40;;
82288;SDS011;71889;39.264;-120.910;2024-02-21T11:00:53;0.30;;;0.10;;
82288;SDS011;71889;39.264;-120.910;2024-02-21T11:03:21;0.93;;;0.40;;
82288;SDS011;71889;39.264;-120.910;2024-02-21T11:05:48;0.55;;;0.30;;
82288;SDS011;71889;39.264;-120.910;2024-02-21T11:08:15;1.88;;;0.85;;
82288;SDS011;71889;39.264;-120.910;2024-02-21T11:10:45;1.17;;;0.70;;
82288;SDS011;71889;39.264;-120.910;2024-02-21T11:13:12;0.28;;;0.17;;
82288;SDS011;71889;39.264;-120.910;2024-02-21T11:15:39;0.93;;;0.30;;
82288;SDS011;71889;39.264;-120.910;2024-02-21T11:18:06;0.55;;;0.40;;
82288;SDS011;71889;39.264;-120.910;2024-02-21T11:20:36;0.13;;;0.10;;
82288;SDS011;71889;39.264;-120.910;2024-02-21T11:23:03;0.20;;;0.10;;
82288;SDS011;71889;39.264;-120.910;2024-02-21T11:25:30;0.50;;;0.10;;
82288;SDS011;71889;39.264;-120.910;2024-02-21T11:28:02;0.00;;;0.00;;
82288;SDS011;71889;39.264;-120.910;2024-02-21T11:30:32;0.10;;;0.08;;
82288;SDS011;71889;39.264;-120.910;2024-02-21T11:35:25;0.38;;;0.10;;
82288;SDS011;71889;39.264;-120.910;2024-02-21T11:38:07;0.38;;;0.20;;
82288;SDS011;71889;39.264;-120.910;2024-02-21T11:40:34;2.83;;;0.03;;
82288;SDS011;71889;39.264;-120.910;2024-02-21T11:43:01;0.28;;;0.20;;
82288;SDS011;71889;39.264;-120.910;2024-02-21T11:45:28;2.72;;;0.20;;
82288;SDS011;71889;39.264;-120.910;2024-02-21T11:47:54;1.00;;;0.10;;
82288;SDS011;71889;39.264;-120.910;2024-02-21T11:50:22;0.38;;;0.20;;
82288;SDS011;71889;39.264;-120.910;2024-02-21T11:52:49;0.10;;;0.00;;
82288;SDS011;71889;39.264;-120.910;2024-02-21T11:55:16;0.03;;;0.00;;
82288;SDS011;71889;39.264;-120.910;2024-02-21T11:57:43;0.22;;;0.08;;
82288;SDS011;71889;39.264;-120.910;2024-02-21T12:00:14;0.22;;;0.10;;
82288;SDS011;71889;39.264;-120.910;2024-02-21T12:02:42;2.08;;;0.10;;
82288;SDS011;71889;39.264;-120.910;2024-02-21T12:05:09;0.68;;;0.35;;
82288;SDS011;71889;39.264;-120.910;2024-02-21T12:07:36;0.32;;;0.17;;
82288;SDS011;71889;39.264;-120.910;2024-02-21T12:10:14;1.88;;;0.10;;
82288;SDS011;71889;39.264;-120.910;2024-02-21T12:12:41;0.70;;;0.13;;
82288;SDS011;71889;39.264;-120.910;2024-02-21T12:15:08;0.28;;;0.10;;
82288;SDS011;71889;39.264;-120.910;2024-02-21T12:17:35;0.38;;;0.08;;
82288;SDS011;71889;39.264;-120.910;2024-02-21T12:20:02;1.65;;;0.30;;
82288;SDS011;71889;39.264;-120.910;2024-02-21T12:22:39;0.52;;;0.13;;
82288;SDS011;71889;39.264;-120.910;2024-02-21T12:25:19;0.17;;;0.10;;
82288;SDS011;71889;39.264;-120.910;2024-02-21T12:27:54;0.88;;;0.25;;
82288;SDS011;71889;39.264;-120.910;2024-02-21T12:30:21;0.40;;;0.30;;
82288;SDS011;71889;39.264;-120.910;2024-02-21T12:32:48;1.83;;;0.30;;
82288;SDS011;71889;39.264;-120.910;2024-02-21T12:35:15;0.68;;;0.20;;
82288;SDS011;71889;39.264;-120.910;2024-02-21T12:37:43;0.30;;;0.10;;
82288;SDS011;71889;39.264;-120.910;2024-02-21T12:40:10;0.45;;;0.20;;
82288;SDS011;71889;39.264;-120.910;2024-02-21T12:42:38;0.77;;;0.22;;
82288;SDS011;71889;39.264;-120.910;2024-02-21T12:45:05;0.17;;;0.10;;
82288;SDS011;71889;39.264;-120.910;2024-02-21T12:47:33;4.30;;;0.10;;
82288;SDS011;71889;39.264;-120.910;2024-02-21T12:49:59;0.10;;;0.00;;
82288;SDS011;71889;39.264;-120.910;2024-02-21T12:52:28;0.00;;;0.00;;
82288;SDS011;71889;39.264;-120.910;2024-02-21T12:54:55;0.00;;;0.00;;
82288;SDS011;71889;39.264;-120.910;2024-02-21T12:57:24;0.10;;;0.00;;
82288;SDS011;71889;39.264;-120.910;2024-02-21T12:59:51;0.10;;;0.00;;
82288;SDS011;71889;39.264;-120.910;2024-02-21T13:02:18;0.00;;;0.00;;
82288;SDS011;71889;39.264;-120.910;2024-02-21T13:04:45;0.10;;;0.00;;
82288;SDS011;71889;39.264;-120.910;2024-02-21T13:07:12;0.00;;;0.00;;
82288;SDS011;71889;39.264;-120.910;2024-02-21T13:09:38;0.05;;;0.00;;
82288;SDS011;71889;39.264;-120.910;2024-02-21T13:12:06;1.75;;;0.03;;
82288;SDS011;71889;39.264;-120.910;2024-02-21T13:14:32;0.08;;;0.00;;
82288;SDS011;71889;39.264;-120.910;2024-02-21T13:17:00;0.73;;;0.10;;
82288;SDS011;71889;39.264;-120.910;2024-02-21T13:19:27;0.00;;;0.00;;
82288;SDS011;71889;39.264;-120.910;2024-02-21T13:21:53;0.00;;;0.00;;
82288;SDS011;71889;39.264;-120.910;2024-02-21T13:24:20;0.00;;;0.00;;
82288;SDS011;71889;39.264;-120.910;2024-02-21T13:26:47;4.07;;;0.20;;
82288;SDS011;71889;39.264;-120.910;2024-02-21T13:29:14;0.93;;;0.00;;
82288;SDS011;71889;39.264;-120.910;2024-02-21T13:31:40;0.95;;;0.00;;
82288;SDS011;71889;39.264;-120.910;2024-02-21T13:34:07;0.13;;;0.10;;
82288;SDS011;71889;39.264;-120.910;2024-02-21T13:36:34;0.00;;;0.00;;
82288;SDS011;71889;39.264;-120.910;2024-02-21T13:39:01;0.08;;;0.00;;
82288;SDS011;71889;39.264;-120.910;2024-02-21T13:41:30;0.50;;;0.20;;
82288;SDS011;71889;39.264;-120.910;2024-02-21T13:43:57;0.60;;;0.20;;
82288;SDS011;71889;39.264;-120.910;2024-02-21T13:46:25;0.28;;;0.15;;
82288;SDS011;71889;39.264;-120.910;2024-02-21T13:48:53;1.75;;;0.30;;
82288;SDS011;71889;39.264;-120.910;2024-02-21T13:51:21;1.27;;;0.50;;
82288;SDS011;71889;39.264;-120.910;2024-02-21T13:53:48;1.90;;;0.75;;
82288;SDS011;71889;39.264;-120.910;2024-02-21T13:56:15;1.50;;;0.68;;
82288;SDS011;71889;39.264;-120.910;2024-02-21T13:58:41;1.75;;;0.98;;
82288;SDS011;71889;39.264;-120.910;2024-02-21T14:01:08;3.78;;;2.28;;
82288;SDS011;71889;39.264;-120.910;2024-02-21T14:03:35;1.45;;;0.85;;
82288;SDS011;71889;39.264;-120.910;2024-02-21T14:06:01;1.45;;;0.40;;
82288;SDS011;71889;39.264;-120.910;2024-02-21T14:08:29;1.13;;;0.40;;
82288;SDS011;71889;39.264;-120.910;2024-02-21T14:10:56;1.27;;;0.50;;
82288;SDS011;71889;39.264;-120.910;2024-02-21T14:13:25;1.77;;;0.40;;
82288;SDS011;71889;39.264;-120.910;2024-02-21T14:15:51;0.85;;;0.50;;
82288;SDS011;71889;39.264;-120.910;2024-02-21T14:18:18;0.70;;;0.35;;